sensor_id;sensor_type;location;lat;lon;timestamp;temperature;humidity
70269;DHT22;58514;48.398;-4.274;2023-02-21T00:02:39;8.20;99.90
70269;DHT22;58514;48.398;-4.274;2023-02-21T00:05:23;8.20;99.90
70269;DHT22;58514;48.398;-4.274;2023-02-21T00:08:07;8.20;99.90
70269;DHT22;58514;48.398;-4.274;2023-02-21T00:10:51;8.20;99.90
70269;DHT22;58514;48.398;-4.274;2023-02-21T00:13:36;8.10;99.90
70269;DHT22;58514;48.398;-4.274;2023-02-21T00:16:20;8.10;99.90
70269;DHT22;58514;48.398;-4.274;2023-02-21T00:19:05;8.00;99.90
70269;DHT22;58514;48.398;-4.274;2023-02-21T00:21:49;8.00;99.90
70269;DHT22;58514;48.398;-4.274;2023-02-21T00:24:33;7.90;99.90
70269;DHT22;58514;48.398;-4.274;2023-02-21T00:27:17;7.80;99.90
70269;DHT22;58514;48.398;-4.274;2023-02-21T00:30:02;7.80;99.90
70269;DHT22;58514;48.398;-4.274;2023-02-21T00:32:46;7.70;99.90
70269;DHT22;58514;48.398;-4.274;2023-02-21T00:35:30;7.70;99.90
70269;DHT22;58514;48.398;-4.274;2023-02-21T00:38:14;7.60;99.90
70269;DHT22;58514;48.398;-4.274;2023-02-21T00:40:59;7.60;99.90
70269;DHT22;58514;48.398;-4.274;2023-02-21T00:43:43;7.50;99.90
70269;DHT22;58514;48.398;-4.274;2023-02-21T00:46:27;7.40;99.90
70269;DHT22;58514;48.398;-4.274;2023-02-21T00:49:12;7.40;99.90
70269;DHT22;58514;48.398;-4.274;2023-02-21T00:51:56;7.30;99.90
70269;DHT22;58514;48.398;-4.274;2023-02-21T00:54:40;7.20;99.90
70269;DHT22;58514;48.398;-4.274;2023-02-21T00:57:25;7.20;99.90
70269;DHT22;58514;48.398;-4.274;2023-02-21T01:00:13;7.20;99.90
70269;DHT22;58514;48.398;-4.274;2023-02-21T01:02:57;7.10;99.90
70269;DHT22;58514;48.398;-4.274;2023-02-21T01:05:41;7.10;99.90
70269;DHT22;58514;48.398;-4.274;2023-02-21T01:08:25;7.10;99.90
70269;DHT22;58514;48.398;-4.274;2023-02-21T01:11:17;7.10;99.90
70269;DHT22;58514;48.398;-4.274;2023-02-21T01:14:01;7.10;99.90
70269;DHT22;58514;48.398;-4.274;2023-02-21T01:16:45;7.10;99.90
70269;DHT22;58514;48.398;-4.274;2023-02-21T01:19:29;7.10;99.90
70269;DHT22;58514;48.398;-4.274;2023-02-21T01:22:14;7.10;99.90
70269;DHT22;58514;48.398;-4.274;2023-02-21T01:24:58;7.10;99.90
70269;DHT22;58514;48.398;-4.274;2023-02-21T01:27:42;7.10;99.90
70269;DHT22;58514;48.398;-4.274;2023-02-21T01:30:26;7.10;99.90
70269;DHT22;58514;48.398;-4.274;2023-02-21T01:33:11;7.10;99.90
70269;DHT22;58514;48.398;-4.274;2023-02-21T01:35:55;7.10;99.90
70269;DHT22;58514;48.398;-4.274;2023-02-21T01:38:39;7.10;99.90
70269;DHT22;58514;48.398;-4.274;2023-02-21T01:41:24;7.10;99.90
70269;DHT22;58514;48.398;-4.274;2023-02-21T01:44:28;7.10;99.90
70269;DHT22;58514;48.398;-4.274;2023-02-21T01:47:13;7.10;99.90
70269;DHT22;58514;48.398;-4.274;2023-02-21T01:49:58;7.10;99.90
70269;DHT22;58514;48.398;-4.274;2023-02-21T01:52:44;7.10;99.90
70269;DHT22;58514;48.398;-4.274;2023-02-21T01:55:29;7.00;99.90
70269;DHT22;58514;48.398;-4.274;2023-02-21T01:58:13;7.10;99.90
70269;DHT22;58514;48.398;-4.274;2023-02-21T02:00:57;7.10;99.90
70269;DHT22;58514;48.398;-4.274;2023-02-21T02:03:41;7.00;99.90
70269;DHT22;58514;48.398;-4.274;2023-02-21T02:06:26;7.00;99.90
70269;DHT22;58514;48.398;-4.274;2023-02-21T02:09:17;7.00;99.90
70269;DHT22;58514;48.398;-4.274;2023-02-21T02:12:14;7.00;99.90
70269;DHT22;58514;48.398;-4.274;2023-02-21T02:45:07;6.60;99.90
70269;DHT22;58514;48.398;-4.274;2023-02-21T02:47:36;6.60;99.90
70269;DHT22;58514;48.398;-4.274;2023-02-21T02:50:03;6.50;99.90
70269;DHT22;58514;48.398;-4.274;2023-02-21T02:52:29;6.50;99.90
70269;DHT22;58514;48.398;-4.274;2023-02-21T02:54:59;6.50;99.90
70269;DHT22;58514;48.398;-4.274;2023-02-21T02:57:24;6.50;99.90
70269;DHT22;58514;48.398;-4.274;2023-02-21T02:59:51;6.40;99.90
70269;DHT22;58514;48.398;-4.274;2023-02-21T03:05:03;6.30;99.90
70269;DHT22;58514;48.398;-4.274;2023-02-21T03:13:19;6.30;99.90
70269;DHT22;58514;48.398;-4.274;2023-02-21T03:15:51;6.20;99.90
70269;DHT22;58514;48.398;-4.274;2023-02-21T03:18:28;6.20;99.90
70269;DHT22;58514;48.398;-4.274;2023-02-21T03:20:56;6.20;99.90
70269;DHT22;58514;48.398;-4.274;2023-02-21T03:23:22;6.20;99.90
70269;DHT22;58514;48.398;-4.274;2023-02-21T03:25:49;6.10;99.90
70269;DHT22;58514;48.398;-4.274;2023-02-21T03:28:15;6.10;99.90
70269;DHT22;58514;48.398;-4.274;2023-02-21T03:30:41;6.10;99.90
70269;DHT22;58514;48.398;-4.274;2023-02-21T03:33:07;6.00;99.90
70269;DHT22;58514;48.398;-4.274;2023-02-21T03:35:33;6.10;99.90
70269;DHT22;58514;48.398;-4.274;2023-02-21T03:37:59;6.00;99.90
70269;DHT22;58514;48.398;-4.274;2023-02-21T03:40:28;6.00;99.90
70269;DHT22;58514;48.398;-4.274;2023-02-21T03:42:55;6.00;99.90
70269;DHT22;58514;48.398;-4.274;2023-02-21T03:45:21;6.00;99.90
70269;DHT22;58514;48.398;-4.274;2023-02-21T03:47:47;6.00;99.90
70269;DHT22;58514;48.398;-4.274;2023-02-21T03:50:12;6.00;99.90
70269;DHT22;58514;48.398;-4.274;2023-02-21T03:52:38;6.00;99.90
70269;DHT22;58514;48.398;-4.274;2023-02-21T03:55:04;6.00;99.90
70269;DHT22;58514;48.398;-4.274;2023-02-21T03:57:30;6.00;99.90
70269;DHT22;58514;48.398;-4.274;2023-02-21T03:59:55;6.00;99.90
70269;DHT22;58514;48.398;-4.274;2023-02-21T04:02:21;5.90;99.90
70269;DHT22;58514;48.398;-4.274;2023-02-21T04:04:47;5.90;99.90
70269;DHT22;58514;48.398;-4.274;2023-02-21T04:07:13;5.90;99.90
70269;DHT22;58514;48.398;-4.274;2023-02-21T04:09:39;5.90;99.90
70269;DHT22;58514;48.398;-4.274;2023-02-21T04:12:04;5.90;99.90
70269;DHT22;58514;48.398;-4.274;2023-02-21T04:14:30;5.80;99.90
70269;DHT22;58514;48.398;-4.274;2023-02-21T04:16:56;5.90;99.90
70269;DHT22;58514;48.398;-4.274;2023-02-21T04:19:21;5.80;99.90
70269;DHT22;58514;48.398;-4.274;2023-02-21T04:21:47;5.80;99.90
70269;DHT22;58514;48.398;-4.274;2023-02-21T04:24:12;5.80;99.90
70269;DHT22;58514;48.398;-4.274;2023-02-21T04:26:38;5.80;99.90
70269;DHT22;58514;48.398;-4.274;2023-02-21T04:29:03;5.80;99.90
70269;DHT22;58514;48.398;-4.274;2023-02-21T04:31:29;5.70;99.90
70269;DHT22;58514;48.398;-4.274;2023-02-21T04:33:57;5.70;99.90
70269;DHT22;58514;48.398;-4.274;2023-02-21T04:36:22;5.70;99.90
70269;DHT22;58514;48.398;-4.274;2023-02-21T04:38:48;5.60;99.90
70269;DHT22;58514;48.398;-4.274;2023-02-21T04:41:15;5.70;99.90
70269;DHT22;58514;48.398;-4.274;2023-02-21T04:43:41;5.60;99.90
70269;DHT22;58514;48.398;-4.274;2023-02-21T04:46:07;5.60;99.90
70269;DHT22;58514;48.398;-4.274;2023-02-21T04:48:33;5.60;99.90
70269;DHT22;58514;48.398;-4.274;2023-02-21T04:50:58;5.60;99.90
70269;DHT22;58514;48.398;-4.274;2023-02-21T04:53:24;5.60;99.90
70269;DHT22;58514;48.398;-4.274;2023-02-21T04:55:50;5.50;99.90
70269;DHT22;58514;48.398;-4.274;2023-02-21T04:58:15;5.60;99.90
70269;DHT22;58514;48.398;-4.274;2023-02-21T05:00:41;5.50;99.90
70269;DHT22;58514;48.398;-4.274;2023-02-21T05:03:06;5.50;99.90
70269;DHT22;58514;48.398;-4.274;2023-02-21T05:05:32;5.50;99.90
70269;DHT22;58514;48.398;-4.274;2023-02-21T05:07:57;5.50;99.90
70269;DHT22;58514;48.398;-4.274;2023-02-21T05:10:23;5.50;99.90
70269;DHT22;58514;48.398;-4.274;2023-02-21T05:12:48;5.50;99.90
70269;DHT22;58514;48.398;-4.274;2023-02-21T05:15:14;5.50;99.90
70269;DHT22;58514;48.398;-4.274;2023-02-21T05:17:40;5.50;99.90
70269;DHT22;58514;48.398;-4.274;2023-02-21T05:20:05;5.50;99.90
70269;DHT22;58514;48.398;-4.274;2023-02-21T05:22:39;5.40;99.90
70269;DHT22;58514;48.398;-4.274;2023-02-21T05:25:05;5.40;99.90
70269;DHT22;58514;48.398;-4.274;2023-02-21T05:27:31;5.40;99.90
70269;DHT22;58514;48.398;-4.274;2023-02-21T05:29:57;5.40;99.90
70269;DHT22;58514;48.398;-4.274;2023-02-21T05:32:22;5.40;99.90
70269;DHT22;58514;48.398;-4.274;2023-02-21T05:34:48;5.40;99.90
70269;DHT22;58514;48.398;-4.274;2023-02-21T05:37:14;5.40;99.90
70269;DHT22;58514;48.398;-4.274;2023-02-21T05:39:40;5.40;99.90
70269;DHT22;58514;48.398;-4.274;2023-02-21T05:42:05;5.40;99.90
70269;DHT22;58514;48.398;-4.274;2023-02-21T05:44:32;5.40;99.90
70269;DHT22;58514;48.398;-4.274;2023-02-21T05:46:57;5.40;99.90
70269;DHT22;58514;48.398;-4.274;2023-02-21T05:49:23;5.40;99.90
70269;DHT22;58514;48.398;-4.274;2023-02-21T05:51:48;5.30;99.90
70269;DHT22;58514;48.398;-4.274;2023-02-21T05:54:15;5.30;99.90
70269;DHT22;58514;48.398;-4.274;2023-02-21T05:56:41;5.30;99.90
70269;DHT22;58514;48.398;-4.274;2023-02-21T05:59:07;5.30;99.90
70269;DHT22;58514;48.398;-4.274;2023-02-21T06:01:33;5.30;99.90
70269;DHT22;58514;48.398;-4.274;2023-02-21T06:03:59;5.30;99.90
70269;DHT22;58514;48.398;-4.274;2023-02-21T06:06:24;5.20;99.90
70269;DHT22;58514;48.398;-4.274;2023-02-21T06:08:50;5.20;99.90
70269;DHT22;58514;48.398;-4.274;2023-02-21T06:11:21;5.20;99.90
70269;DHT22;58514;48.398;-4.274;2023-02-21T06:13:49;5.20;99.90
70269;DHT22;58514;48.398;-4.274;2023-02-21T06:16:14;5.20;99.90
70269;DHT22;58514;48.398;-4.274;2023-02-21T06:18:40;5.20;99.90
70269;DHT22;58514;48.398;-4.274;2023-02-21T06:21:05;5.20;99.90
70269;DHT22;58514;48.398;-4.274;2023-02-21T06:23:31;5.20;99.90
70269;DHT22;58514;48.398;-4.274;2023-02-21T06:25:57;5.20;99.90
70269;DHT22;58514;48.398;-4.274;2023-02-21T06:28:26;5.20;99.90
70269;DHT22;58514;48.398;-4.274;2023-02-21T06:30:52;5.20;99.90
70269;DHT22;58514;48.398;-4.274;2023-02-21T06:33:17;5.10;99.90
70269;DHT22;58514;48.398;-4.274;2023-02-21T06:35:43;5.10;99.90
70269;DHT22;58514;48.398;-4.274;2023-02-21T06:38:08;5.10;99.90
70269;DHT22;58514;48.398;-4.274;2023-02-21T06:40:34;5.10;99.90
70269;DHT22;58514;48.398;-4.274;2023-02-21T06:42:59;5.10;99.90
70269;DHT22;58514;48.398;-4.274;2023-02-21T06:45:25;5.00;99.90
70269;DHT22;58514;48.398;-4.274;2023-02-21T06:47:51;5.00;99.90
70269;DHT22;58514;48.398;-4.274;2023-02-21T06:50:16;5.00;99.90
70269;DHT22;58514;48.398;-4.274;2023-02-21T06:52:42;5.00;99.90
70269;DHT22;58514;48.398;-4.274;2023-02-21T06:55:07;5.00;99.90
70269;DHT22;58514;48.398;-4.274;2023-02-21T06:57:33;5.00;99.90
70269;DHT22;58514;48.398;-4.274;2023-02-21T06:59:58;5.10;99.90
70269;DHT22;58514;48.398;-4.274;2023-02-21T07:02:24;5.20;99.90
70269;DHT22;58514;48.398;-4.274;2023-02-21T07:04:49;5.30;99.90
70269;DHT22;58514;48.398;-4.274;2023-02-21T07:07:15;5.40;99.90
70269;DHT22;58514;48.398;-4.274;2023-02-21T07:09:41;5.50;99.90
70269;DHT22;58514;48.398;-4.274;2023-02-21T07:12:06;5.60;99.90
70269;DHT22;58514;48.398;-4.274;2023-02-21T07:14:33;5.70;99.90
70269;DHT22;58514;48.398;-4.274;2023-02-21T07:16:58;5.80;99.90
70269;DHT22;58514;48.398;-4.274;2023-02-21T07:19:24;5.90;99.90
70269;DHT22;58514;48.398;-4.274;2023-02-21T07:21:49;5.90;99.90
70269;DHT22;58514;48.398;-4.274;2023-02-21T07:24:15;6.00;99.90
70269;DHT22;58514;48.398;-4.274;2023-02-21T07:26:41;6.00;99.90
70269;DHT22;58514;48.398;-4.274;2023-02-21T07:29:06;6.10;99.90
70269;DHT22;58514;48.398;-4.274;2023-02-21T07:31:32;6.10;99.90
70269;DHT22;58514;48.398;-4.274;2023-02-21T07:33:58;6.20;99.90
70269;DHT22;58514;48.398;-4.274;2023-02-21T07:36:23;6.20;99.90
70269;DHT22;58514;48.398;-4.274;2023-02-21T07:38:49;6.20;99.90
70269;DHT22;58514;48.398;-4.274;2023-02-21T07:41:15;6.30;99.90
70269;DHT22;58514;48.398;-4.274;2023-02-21T07:43:41;6.30;99.90
70269;DHT22;58514;48.398;-4.274;2023-02-21T07:46:10;6.30;99.90
70269;DHT22;58514;48.398;-4.274;2023-02-21T07:48:35;6.40;99.90
70269;DHT22;58514;48.398;-4.274;2023-02-21T07:51:01;6.40;99.90
70269;DHT22;58514;48.398;-4.274;2023-02-21T07:53:26;6.40;99.90
70269;DHT22;58514;48.398;-4.274;2023-02-21T07:55:52;6.40;99.90
70269;DHT22;58514;48.398;-4.274;2023-02-21T07:58:18;6.50;99.90
70269;DHT22;58514;48.398;-4.274;2023-02-21T08:00:43;6.50;99.90
70269;DHT22;58514;48.398;-4.274;2023-02-21T08:03:12;6.60;99.90
70269;DHT22;58514;48.398;-4.274;2023-02-21T08:05:38;6.60;99.90
70269;DHT22;58514;48.398;-4.274;2023-02-21T08:08:06;6.70;99.90
70269;DHT22;58514;48.398;-4.274;2023-02-21T08:10:31;6.80;99.90
70269;DHT22;58514;48.398;-4.274;2023-02-21T08:12:57;6.80;99.90
70269;DHT22;58514;48.398;-4.274;2023-02-21T08:15:22;6.80;99.90
70269;DHT22;58514;48.398;-4.274;2023-02-21T08:17:48;6.90;99.90
70269;DHT22;58514;48.398;-4.274;2023-02-21T08:20:14;6.90;99.90
70269;DHT22;58514;48.398;-4.274;2023-02-21T08:22:40;7.00;99.90
70269;DHT22;58514;48.398;-4.274;2023-02-21T08:25:06;7.00;99.90
70269;DHT22;58514;48.398;-4.274;2023-02-21T08:27:31;7.10;99.90
70269;DHT22;58514;48.398;-4.274;2023-02-21T08:29:57;7.10;99.90
70269;DHT22;58514;48.398;-4.274;2023-02-21T08:32:22;7.20;99.90
70269;DHT22;58514;48.398;-4.274;2023-02-21T08:34:48;7.20;99.90
70269;DHT22;58514;48.398;-4.274;2023-02-21T08:37:14;7.30;99.90
70269;DHT22;58514;48.398;-4.274;2023-02-21T08:39:50;7.30;99.90
70269;DHT22;58514;48.398;-4.274;2023-02-21T08:42:20;7.40;99.90
70269;DHT22;58514;48.398;-4.274;2023-02-21T08:44:46;7.40;99.90
70269;DHT22;58514;48.398;-4.274;2023-02-21T08:47:12;7.40;99.90
70269;DHT22;58514;48.398;-4.274;2023-02-21T08:49:38;7.50;99.90
70269;DHT22;58514;48.398;-4.274;2023-02-21T08:52:05;7.50;99.90
70269;DHT22;58514;48.398;-4.274;2023-02-21T08:54:31;7.50;99.90
70269;DHT22;58514;48.398;-4.274;2023-02-21T08:56:57;7.50;99.90
70269;DHT22;58514;48.398;-4.274;2023-02-21T08:59:23;7.60;99.90
70269;DHT22;58514;48.398;-4.274;2023-02-21T09:01:49;7.60;99.90
70269;DHT22;58514;48.398;-4.274;2023-02-21T09:04:14;7.70;99.90
70269;DHT22;58514;48.398;-4.274;2023-02-21T09:06:40;7.70;99.90
70269;DHT22;58514;48.398;-4.274;2023-02-21T09:09:05;7.80;99.90
70269;DHT22;58514;48.398;-4.274;2023-02-21T09:11:31;7.80;99.90
70269;DHT22;58514;48.398;-4.274;2023-02-21T09:13:57;7.90;99.90
70269;DHT22;58514;48.398;-4.274;2023-02-21T09:16:22;7.90;99.90
70269;DHT22;58514;48.398;-4.274;2023-02-21T09:18:52;8.00;99.90
70269;DHT22;58514;48.398;-4.274;2023-02-21T09:21:17;7.90;99.90
70269;DHT22;58514;48.398;-4.274;2023-02-21T09:23:43;7.90;99.90
70269;DHT22;58514;48.398;-4.274;2023-02-21T09:26:08;7.80;99.90
70269;DHT22;58514;48.398;-4.274;2023-02-21T09:28:34;7.80;99.90
70269;DHT22;58514;48.398;-4.274;2023-02-21T09:31:00;7.70;99.90
70269;DHT22;58514;48.398;-4.274;2023-02-21T09:33:25;7.60;99.90
70269;DHT22;58514;48.398;-4.274;2023-02-21T09:35:51;7.60;99.90
70269;DHT22;58514;48.398;-4.274;2023-02-21T09:38:18;7.60;99.90
70269;DHT22;58514;48.398;-4.274;2023-02-21T09:40:58;7.60;99.90
70269;DHT22;58514;48.398;-4.274;2023-02-21T09:43:29;7.70;99.90
70269;DHT22;58514;48.398;-4.274;2023-02-21T09:45:57;7.70;99.90
70269;DHT22;58514;48.398;-4.274;2023-02-21T09:48:23;7.80;99.90
70269;DHT22;58514;48.398;-4.274;2023-02-21T09:50:54;7.80;99.90
70269;DHT22;58514;48.398;-4.274;2023-02-21T09:53:30;7.90;99.90
70269;DHT22;58514;48.398;-4.274;2023-02-21T09:55:58;7.90;99.90
70269;DHT22;58514;48.398;-4.274;2023-02-21T09:58:25;7.90;99.90
70269;DHT22;58514;48.398;-4.274;2023-02-21T10:00:51;7.90;99.90
70269;DHT22;58514;48.398;-4.274;2023-02-21T10:05:46;8.00;99.90
70269;DHT22;58514;48.398;-4.274;2023-02-21T10:11:01;8.00;99.90
70269;DHT22;58514;48.398;-4.274;2023-02-21T10:13:38;8.10;99.90
70269;DHT22;58514;48.398;-4.274;2023-02-21T10:16:16;8.10;99.90
70269;DHT22;58514;48.398;-4.274;2023-02-21T10:18:47;8.10;99.90
70269;DHT22;58514;48.398;-4.274;2023-02-21T10:21:21;8.10;99.90
70269;DHT22;58514;48.398;-4.274;2023-02-21T10:23:47;8.10;99.90
70269;DHT22;58514;48.398;-4.274;2023-02-21T10:26:18;8.20;99.90
70269;DHT22;58514;48.398;-4.274;2023-02-21T10:28:44;8.20;99.90
70269;DHT22;58514;48.398;-4.274;2023-02-21T10:31:13;8.20;99.90
70269;DHT22;58514;48.398;-4.274;2023-02-21T10:33:41;8.20;99.90
70269;DHT22;58514;48.398;-4.274;2023-02-21T10:36:10;8.20;99.90
70269;DHT22;58514;48.398;-4.274;2023-02-21T10:38:36;8.40;99.90
70269;DHT22;58514;48.398;-4.274;2023-02-21T10:41:04;8.40;99.90
70269;DHT22;58514;48.398;-4.274;2023-02-21T10:43:33;8.50;99.90
70269;DHT22;58514;48.398;-4.274;2023-02-21T10:48:33;8.70;99.90
70269;DHT22;58514;48.398;-4.274;2023-02-21T10:51:07;8.80;99.90
70269;DHT22;58514;48.398;-4.274;2023-02-21T10:53:43;8.90;99.90
70269;DHT22;58514;48.398;-4.274;2023-02-21T10:58:56;9.00;99.90
70269;DHT22;58514;48.398;-4.274;2023-02-21T11:04:04;9.20;99.90
70269;DHT22;58514;48.398;-4.274;2023-02-21T11:06:35;9.20;99.90
70269;DHT22;58514;48.398;-4.274;2023-02-21T11:09:01;9.30;99.90
70269;DHT22;58514;48.398;-4.274;2023-02-21T11:11:38;9.40;99.90
70269;DHT22;58514;48.398;-4.274;2023-02-21T11:16:42;9.50;99.90
70269;DHT22;58514;48.398;-4.274;2023-02-21T11:19:09;9.50;99.90
70269;DHT22;58514;48.398;-4.274;2023-02-21T11:21:36;9.50;99.90
70269;DHT22;58514;48.398;-4.274;2023-02-21T11:24:05;9.50;99.90
70269;DHT22;58514;48.398;-4.274;2023-02-21T11:26:43;9.50;99.90
70269;DHT22;58514;48.398;-4.274;2023-02-21T11:29:14;9.40;99.90
70269;DHT22;58514;48.398;-4.274;2023-02-21T11:31:41;9.40;99.90
70269;DHT22;58514;48.398;-4.274;2023-02-21T11:34:08;9.40;99.90
70269;DHT22;58514;48.398;-4.274;2023-02-21T11:36:35;9.30;99.90
70269;DHT22;58514;48.398;-4.274;2023-02-21T11:39:03;9.30;99.90
70269;DHT22;58514;48.398;-4.274;2023-02-21T11:41:32;9.20;99.90
70269;DHT22;58514;48.398;-4.274;2023-02-21T11:43:59;9.10;99.90
70269;DHT22;58514;48.398;-4.274;2023-02-21T11:49:01;9.00;99.90
70269;DHT22;58514;48.398;-4.274;2023-02-21T11:51:32;9.00;99.90
70269;DHT22;58514;48.398;-4.274;2023-02-21T11:54:00;9.00;99.90
70269;DHT22;58514;48.398;-4.274;2023-02-21T11:58:57;9.00;99.90
70269;DHT22;58514;48.398;-4.274;2023-02-21T12:01:34;9.00;99.90
70269;DHT22;58514;48.398;-4.274;2023-02-21T12:04:07;9.10;99.90
70269;DHT22;58514;48.398;-4.274;2023-02-21T12:06:41;9.20;99.90
70269;DHT22;58514;48.398;-4.274;2023-02-21T12:09:11;9.20;99.90
70269;DHT22;58514;48.398;-4.274;2023-02-21T12:17:24;9.50;99.90
70269;DHT22;58514;48.398;-4.274;2023-02-21T12:19:58;9.60;99.90
70269;DHT22;58514;48.398;-4.274;2023-02-21T12:25:05;9.90;99.90
70269;DHT22;58514;48.398;-4.274;2023-02-21T12:33:12;10.00;99.90
70269;DHT22;58514;48.398;-4.274;2023-02-21T12:38:41;10.10;99.90
70269;DHT22;58514;48.398;-4.274;2023-02-21T12:43:50;10.30;99.90
70269;DHT22;58514;48.398;-4.274;2023-02-21T12:51:46;10.50;99.90
70269;DHT22;58514;48.398;-4.274;2023-02-21T12:57:06;10.50;99.90
70269;DHT22;58514;48.398;-4.274;2023-02-21T12:59:50;10.50;99.90
70269;DHT22;58514;48.398;-4.274;2023-02-21T13:02:28;10.50;99.90
70269;DHT22;58514;48.398;-4.274;2023-02-21T13:04:56;10.50;99.90
70269;DHT22;58514;48.398;-4.274;2023-02-21T13:10:24;10.50;99.90
70269;DHT22;58514;48.398;-4.274;2023-02-21T13:12:54;10.50;99.90
70269;DHT22;58514;48.398;-4.274;2023-02-21T13:15:22;10.50;99.90
70269;DHT22;58514;48.398;-4.274;2023-02-21T13:17:49;10.50;99.90
70269;DHT22;58514;48.398;-4.274;2023-02-21T13:20:17;10.50;99.90
70269;DHT22;58514;48.398;-4.274;2023-02-21T13:28:28;10.60;99.90
70269;DHT22;58514;48.398;-4.274;2023-02-21T13:31:01;10.60;99.90
70269;DHT22;58514;48.398;-4.274;2023-02-21T13:35:55;10.70;99.90
70269;DHT22;58514;48.398;-4.274;2023-02-21T13:38:20;10.70;99.90
70269;DHT22;58514;48.398;-4.274;2023-02-21T13:41:19;10.70;99.90
70269;DHT22;58514;48.398;-4.274;2023-02-21T13:43:48;10.70;99.90
70269;DHT22;58514;48.398;-4.274;2023-02-21T13:46:22;10.80;99.90
70269;DHT22;58514;48.398;-4.274;2023-02-21T13:51:43;10.80;99.90
70269;DHT22;58514;48.398;-4.274;2023-02-21T13:54:10;10.80;99.90
70269;DHT22;58514;48.398;-4.274;2023-02-21T13:56:40;10.70;99.90
70269;DHT22;58514;48.398;-4.274;2023-02-21T14:02:21;10.70;99.90
70269;DHT22;58514;48.398;-4.274;2023-02-21T14:04:49;10.80;99.90
70269;DHT22;58514;48.398;-4.274;2023-02-21T14:07:41;10.70;99.90
70269;DHT22;58514;48.398;-4.274;2023-02-21T14:10:16;10.70;99.90
70269;DHT22;58514;48.398;-4.274;2023-02-21T14:12:42;10.70;99.90
70269;DHT22;58514;48.398;-4.274;2023-02-21T14:15:08;10.70;99.90
70269;DHT22;58514;48.398;-4.274;2023-02-21T14:17:34;10.70;99.90
70269;DHT22;58514;48.398;-4.274;2023-02-21T14:20:00;10.70;99.90
70269;DHT22;58514;48.398;-4.274;2023-02-21T14:22:28;10.70;99.90
70269;DHT22;58514;48.398;-4.274;2023-02-21T14:25:28;10.70;99.90
70269;DHT22;58514;48.398;-4.274;2023-02-21T14:27:48;10.70;99.90
70269;DHT22;58514;48.398;-4.274;2023-02-21T14:30:20;10.70;99.90
70269;DHT22;58514;48.398;-4.274;2023-02-21T14:32:47;10.70;99.90
70269;DHT22;58514;48.398;-4.274;2023-02-21T14:40:26;10.70;99.90
70269;DHT22;58514;48.398;-4.274;2023-02-21T14:45:37;10.80;99.90
70269;DHT22;58514;48.398;-4.274;2023-02-21T14:48:15;10.90;99.90
70269;DHT22;58514;48.398;-4.274;2023-02-21T15:00:59;11.10;99.90
70269;DHT22;58514;48.398;-4.274;2023-02-21T15:03:31;11.10;99.90
70269;DHT22;58514;48.398;-4.274;2023-02-21T15:08:27;11.10;99.90
70269;DHT22;58514;48.398;-4.274;2023-02-21T15:10:59;11.10;99.90
70269;DHT22;58514;48.398;-4.274;2023-02-21T15:13:27;11.20;99.90
70269;DHT22;58514;48.398;-4.274;2023-02-21T15:18:23;11.10;99.90
70269;DHT22;58514;48.398;-4.274;2023-02-21T15:21:00;11.10;99.90
70269;DHT22;58514;48.398;-4.274;2023-02-21T15:23:27;11.10;99.90
70269;DHT22;58514;48.398;-4.274;2023-02-21T15:25:54;11.20;99.90
70269;DHT22;58514;48.398;-4.274;2023-02-21T15:28:21;11.10;99.90
70269;DHT22;58514;48.398;-4.274;2023-02-21T15:30:58;11.10;99.90
70269;DHT22;58514;48.398;-4.274;2023-02-21T15:33:25;11.10;99.90
70269;DHT22;58514;48.398;-4.274;2023-02-21T15:35:59;11.10;99.90
70269;DHT22;58514;48.398;-4.274;2023-02-21T15:38:42;11.10;99.90
70269;DHT22;58514;48.398;-4.274;2023-02-21T15:41:08;11.10;99.90
70269;DHT22;58514;48.398;-4.274;2023-02-21T15:43:41;11.00;99.90
70269;DHT22;58514;48.398;-4.274;2023-02-21T15:46:10;11.00;99.90
70269;DHT22;58514;48.398;-4.274;2023-02-21T15:48:37;11.00;99.90
70269;DHT22;58514;48.398;-4.274;2023-02-21T15:51:03;11.00;99.90
70269;DHT22;58514;48.398;-4.274;2023-02-21T15:53:29;11.00;99.90
70269;DHT22;58514;48.398;-4.274;2023-02-21T15:56:13;11.00;99.90
70269;DHT22;58514;48.398;-4.274;2023-02-21T15:58:39;10.90;99.90
70269;DHT22;58514;48.398;-4.274;2023-02-21T16:01:14;10.90;99.90
70269;DHT22;58514;48.398;-4.274;2023-02-21T16:03:44;10.90;99.90
70269;DHT22;58514;48.398;-4.274;2023-02-21T16:06:20;10.90;99.90
70269;DHT22;58514;48.398;-4.274;2023-02-21T16:11:15;10.90;99.90
70269;DHT22;58514;48.398;-4.274;2023-02-21T16:13:41;10.80;99.90
70269;DHT22;58514;48.398;-4.274;2023-02-21T16:16:06;10.80;99.90
70269;DHT22;58514;48.398;-4.274;2023-02-21T16:18:32;10.80;99.90
70269;DHT22;58514;48.398;-4.274;2023-02-21T16:20:59;10.80;99.90
70269;DHT22;58514;48.398;-4.274;2023-02-21T16:23:29;10.80;99.90
70269;DHT22;58514;48.398;-4.274;2023-02-21T16:28:20;10.70;99.90
70269;DHT22;58514;48.398;-4.274;2023-02-21T16:30:46;10.70;99.90
70269;DHT22;58514;48.398;-4.274;2023-02-21T16:33:12;10.60;99.90
70269;DHT22;58514;48.398;-4.274;2023-02-21T16:35:40;10.60;99.90
70269;DHT22;58514;48.398;-4.274;2023-02-21T16:38:08;10.60;99.90
70269;DHT22;58514;48.398;-4.274;2023-02-21T16:40:35;10.60;99.90
70269;DHT22;58514;48.398;-4.274;2023-02-21T16:43:01;10.50;99.90
70269;DHT22;58514;48.398;-4.274;2023-02-21T16:45:28;10.40;99.90
70269;DHT22;58514;48.398;-4.274;2023-02-21T16:47:55;10.40;99.90
70269;DHT22;58514;48.398;-4.274;2023-02-21T16:50:26;10.40;99.90
70269;DHT22;58514;48.398;-4.274;2023-02-21T16:52:52;10.30;99.90
70269;DHT22;58514;48.398;-4.274;2023-02-21T16:55:18;10.30;99.90
70269;DHT22;58514;48.398;-4.274;2023-02-21T16:57:46;10.30;99.90
70269;DHT22;58514;48.398;-4.274;2023-02-21T17:00:12;10.30;99.90
70269;DHT22;58514;48.398;-4.274;2023-02-21T17:02:38;10.20;99.90
70269;DHT22;58514;48.398;-4.274;2023-02-21T17:05:03;10.20;99.90
70269;DHT22;58514;48.398;-4.274;2023-02-21T17:07:29;10.10;99.90
70269;DHT22;58514;48.398;-4.274;2023-02-21T17:09:54;10.10;99.90
70269;DHT22;58514;48.398;-4.274;2023-02-21T17:12:20;10.10;99.90
70269;DHT22;58514;48.398;-4.274;2023-02-21T17:14:45;10.00;99.90
70269;DHT22;58514;48.398;-4.274;2023-02-21T17:17:11;10.00;99.90
70269;DHT22;58514;48.398;-4.274;2023-02-21T17:19:37;10.00;99.90
70269;DHT22;58514;48.398;-4.274;2023-02-21T17:22:02;10.00;99.90
70269;DHT22;58514;48.398;-4.274;2023-02-21T17:24:28;10.00;99.90
70269;DHT22;58514;48.398;-4.274;2023-02-21T17:26:53;10.00;99.90
70269;DHT22;58514;48.398;-4.274;2023-02-21T17:29:19;10.00;99.90
70269;DHT22;58514;48.398;-4.274;2023-02-21T17:31:45;9.90;99.90
70269;DHT22;58514;48.398;-4.274;2023-02-21T17:34:11;10.00;99.90
70269;DHT22;58514;48.398;-4.274;2023-02-21T17:36:38;9.90;99.90
70269;DHT22;58514;48.398;-4.274;2023-02-21T17:39:03;9.90;99.90
70269;DHT22;58514;48.398;-4.274;2023-02-21T17:41:30;9.90;99.90
70269;DHT22;58514;48.398;-4.274;2023-02-21T17:43:56;9.90;99.90
70269;DHT22;58514;48.398;-4.274;2023-02-21T17:46:21;9.90;99.90
70269;DHT22;58514;48.398;-4.274;2023-02-21T17:48:47;9.90;99.90
70269;DHT22;58514;48.398;-4.274;2023-02-21T17:51:17;9.90;99.90
70269;DHT22;58514;48.398;-4.274;2023-02-21T17:53:43;9.80;99.90
70269;DHT22;58514;48.398;-4.274;2023-02-21T17:56:09;9.90;99.90
70269;DHT22;58514;48.398;-4.274;2023-02-21T17:58:34;9.90;99.90